Walton-on-Thames, United Kingdom
Current Conditions -  °F | °C
As of 2:50 PM on Tuesday 21 Oct 2014 (Local Time) from EGLL Reporting Station
Scattered Clouds Scattered Clouds  
Wind Chill: 52°   Ceiling: Unl
Heat Index: 52°   Visibility: 6mi
Dew Point: 43°   Wind: 18mph
Humidity: 71%   Direction: 300°WNW
Pressure: 29.77"   Gusts: NA
Location:  51.39°N, 0.42°W
Report Text: EGLL 211350Z 30016KT 9999 FEW020 SCT047 11/06 Q1008 RESHRA
Loading
Personal Weather Stations






























Interactive Weather Map
Tropical Storm Tracking
New forecast layout! Learn more

10-Day Weather Forecast

Advertisements
Track Severe Weather on mobile